SWA1355 KBZN-KLAS
Flight info
| Callsign | SWA1355 |
|---|---|
| Flight time | N/A |
| Altitude | 41000 |
| Route | BGSKY2 DBS DCT MLD DCT WAATS DCT MLF DCT STEWW CHOWW4 |
| Aircraft | B737/M-SDE2E3FGHIRWXY/LB1 |
Departure
| Time | 2026-04-27 15:57 |
|---|---|
| Airport | Bozeman Yellowstone International Airport (KBZN) |
Arrival
| Time | N/A |
|---|---|
| Airport | Harry Reid International Airport (KLAS) |
| Time | Latitude | Longitude | Altitude | Speed | Heading |
|---|---|---|---|---|---|
| 2026-04-27 15:32 | 45.78025 | -111.16319 | 4480 ft | 0 kts | 161° |
| 2026-04-27 15:47 | 45.78036 | -111.16324 | 4480 ft | 4 kts | 161° |
| 2026-04-27 15:48 | 45.78062 | -111.16337 | 4481 ft | 4 kts | 161° |
| 2026-04-27 15:48 | 45.78082 | -111.16347 | 4483 ft | 4 kts | 146° |
| 2026-04-27 15:48 | 45.78097 | -111.16374 | 4480 ft | 4 kts | 96° |
| 2026-04-27 15:49 | 45.78097 | -111.16406 | 4481 ft | 0 kts | 90° |
| 2026-04-27 15:52 | 45.78097 | -111.16405 | 4481 ft | 1 kts | 90° |
| 2026-04-27 15:53 | 45.78097 | -111.16386 | 4482 ft | 4 kts | 90° |
| 2026-04-27 15:53 | 45.78102 | -111.16335 | 4480 ft | 7 kts | 65° |
| 2026-04-27 15:53 | 45.78145 | -111.16288 | 4480 ft | 9 kts | 5° |
| 2026-04-27 15:53 | 45.78211 | -111.16370 | 4480 ft | 11 kts | 315° |
| 2026-04-27 15:54 | 45.78275 | -111.16415 | 4481 ft | 10 kts | 32° |
| 2026-04-27 15:54 | 45.78335 | -111.16396 | 4483 ft | 11 kts | 321° |
| 2026-04-27 15:54 | 45.78373 | -111.16450 | 4482 ft | 13 kts | 315° |
| 2026-04-27 15:54 | 45.78444 | -111.16549 | 4482 ft | 16 kts | 316° |
| 2026-04-27 15:55 | 45.78537 | -111.16678 | 4483 ft | 20 kts | 316° |
| 2026-04-27 15:55 | 45.78638 | -111.16816 | 4480 ft | 16 kts | 326° |
| 2026-04-27 15:55 | 45.78727 | -111.16750 | 4484 ft | 15 kts | 45° |
| 2026-04-27 15:55 | 45.78787 | -111.16632 | 4482 ft | 15 kts | 91° |
| 2026-04-27 15:56 | 45.78753 | -111.16565 | 4482 ft | 0 kts | 136° |
| 2026-04-27 15:56 | 45.78715 | -111.16514 | 4485 ft | 35 kts | 136° |
| 2026-04-27 15:56 | 45.78345 | -111.16001 | 4483 ft | 113 kts | 136° |
| 2026-04-27 15:56 | 45.77621 | -111.14995 | 4524 ft | 172 kts | 136° |
| 2026-04-27 15:57 | 45.76737 | -111.13754 | 5313 ft | 170 kts | 136° |
| 2026-04-27 15:57 | 45.75879 | -111.12679 | 6399 ft | 173 kts | 150° |
| 2026-04-27 15:57 | 45.74591 | -111.12443 | 6746 ft | 207 kts | 193° |
| 2026-04-27 15:57 | 45.73214 | -111.13416 | 7005 ft | 237 kts | 210° |
| 2026-04-27 15:58 | 45.71743 | -111.14665 | 7563 ft | 252 kts | 210° |
| 2026-04-27 15:58 | 45.70179 | -111.15981 | 8221 ft | 270 kts | 210° |
| 2026-04-27 15:58 | 45.68532 | -111.17353 | 9148 ft | 277 kts | 210° |
| 2026-04-27 15:58 | 45.66853 | -111.18746 | 10192 ft | 280 kts | 212° |
| 2026-04-27 15:59 | 45.65374 | -111.20657 | 10721 ft | 302 kts | 236° |
| 2026-04-27 15:59 | 45.64561 | -111.23548 | 11070 ft | 326 kts | 256° |
| 2026-04-27 15:59 | 45.64046 | -111.26745 | 11847 ft | 334 kts | 257° |
| 2026-04-27 15:59 | 45.63553 | -111.30007 | 12818 ft | 337 kts | 258° |
| 2026-04-27 16:00 | 45.63053 | -111.33301 | 13777 ft | 342 kts | 258° |
| 2026-04-27 16:00 | 45.62535 | -111.36635 | 14674 ft | 346 kts | 257° |
| 2026-04-27 16:00 | 45.62004 | -111.39995 | 15631 ft | 348 kts | 257° |
| 2026-04-27 16:00 | 45.61462 | -111.43377 | 16632 ft | 350 kts | 256° |
| 2026-04-27 16:01 | 45.60912 | -111.46780 | 17596 ft | 353 kts | 256° |
| 2026-04-27 16:01 | 45.60355 | -111.50213 | 18543 ft | 356 kts | 256° |
| 2026-04-27 16:01 | 45.59792 | -111.53672 | 19362 ft | 359 kts | 256° |
| 2026-04-27 16:01 | 45.59223 | -111.57159 | 20218 ft | 362 kts | 256° |
| 2026-04-27 16:02 | 45.58380 | -111.60539 | 21017 ft | 364 kts | 240° |
| 2026-04-27 16:02 | 45.56805 | -111.63371 | 21846 ft | 368 kts | 224° |
| 2026-04-27 16:02 | 45.54683 | -111.65449 | 22618 ft | 375 kts | 208° |
| 2026-04-27 16:02 | 45.52289 | -111.66986 | 23368 ft | 380 kts | 206° |
| 2026-04-27 16:03 | 45.49835 | -111.68440 | 24003 ft | 385 kts | 205° |
| 2026-04-27 16:03 | 45.47345 | -111.69895 | 24614 ft | 388 kts | 205° |
| 2026-04-27 16:03 | 45.44827 | -111.71384 | 25079 ft | 395 kts | 205° |
| 2026-04-27 16:03 | 45.42298 | -111.72901 | 25784 ft | 394 kts | 206° |
| 2026-04-27 16:04 | 45.39777 | -111.74427 | 26449 ft | 395 kts | 206° |
| 2026-04-27 16:04 | 45.37238 | -111.75972 | 27014 ft | 399 kts | 206° |
| 2026-04-27 16:04 | 45.34676 | -111.77534 | 27550 ft | 402 kts | 206° |
| 2026-04-27 16:04 | 45.32095 | -111.79104 | 28097 ft | 405 kts | 206° |
| 2026-04-27 16:05 | 45.29488 | -111.80655 | 28648 ft | 408 kts | 203° |
| 2026-04-27 16:05 | 45.26745 | -111.81812 | 29162 ft | 414 kts | 198° |
| 2026-04-27 16:05 | 45.23941 | -111.82767 | 29673 ft | 417 kts | 196° |
| 2026-04-27 16:05 | 45.21098 | -111.83670 | 30143 ft | 420 kts | 196° |
| 2026-04-27 16:06 | 45.18232 | -111.84573 | 30484 ft | 424 kts | 196° |
| 2026-04-27 16:06 | 45.15341 | -111.85499 | 30768 ft | 428 kts | 196° |
| 2026-04-27 16:06 | 45.12468 | -111.86439 | 31074 ft | 431 kts | 196° |
| 2026-04-27 16:06 | 45.09533 | -111.87415 | 31360 ft | 435 kts | 196° |
| 2026-04-27 16:07 | 45.06576 | -111.88409 | 31643 ft | 439 kts | 196° |
| 2026-04-27 16:07 | 45.03597 | -111.89414 | 32006 ft | 440 kts | 196° |
| 2026-04-27 16:07 | 45.00619 | -111.90421 | 32421 ft | 440 kts | 196° |
| 2026-04-27 16:07 | 44.97638 | -111.91428 | 32798 ft | 441 kts | 196° |
| 2026-04-27 16:08 | 44.94645 | -111.92440 | 33137 ft | 443 kts | 196° |
| 2026-04-27 16:08 | 44.91643 | -111.93452 | 33487 ft | 444 kts | 196° |
| 2026-04-27 16:08 | 44.88637 | -111.94465 | 33894 ft | 444 kts | 196° |
| 2026-04-27 16:08 | 44.85625 | -111.95478 | 34207 ft | 445 kts | 196° |
| 2026-04-27 16:09 | 44.82607 | -111.96492 | 34508 ft | 446 kts | 196° |
| 2026-04-27 16:09 | 44.76584 | -111.98512 | 35191 ft | 444 kts | 196° |
| 2026-04-27 16:09 | 44.73575 | -111.99520 | 35487 ft | 445 kts | 196° |
| 2026-04-27 16:10 | 44.67540 | -112.01538 | 36033 ft | 446 kts | 195° |
| 2026-04-27 16:10 | 44.61509 | -112.03551 | 36661 ft | 445 kts | 195° |
| 2026-04-27 16:11 | 44.58496 | -112.04555 | 36919 ft | 446 kts | 195° |
| 2026-04-27 16:11 | 44.52455 | -112.06564 | 37499 ft | 446 kts | 195° |
| 2026-04-27 16:12 | 44.46418 | -112.08568 | 38026 ft | 447 kts | 195° |
| 2026-04-27 16:12 | 44.43393 | -112.09571 | 38288 ft | 447 kts | 195° |
| 2026-04-27 16:12 | 44.37386 | -112.11558 | 38806 ft | 446 kts | 195° |
| 2026-04-27 16:13 | 44.34363 | -112.12557 | 39004 ft | 446 kts | 195° |
| 2026-04-27 16:13 | 44.28280 | -112.14563 | 39427 ft | 446 kts | 195° |
| 2026-04-27 16:13 | 44.25259 | -112.15558 | 39609 ft | 446 kts | 195° |
| 2026-04-27 16:14 | 44.19255 | -112.17533 | 39996 ft | 446 kts | 195° |
| 2026-04-27 16:14 | 44.13217 | -112.19515 | 40386 ft | 446 kts | 195° |
| 2026-04-27 16:15 | 44.07150 | -112.21372 | 40729 ft | 447 kts | 191° |
| 2026-04-27 16:15 | 44.00944 | -112.22283 | 40967 ft | 451 kts | 187° |
| 2026-04-27 16:16 | 43.88463 | -112.23639 | 40970 ft | 446 kts | 187° |
| 2026-04-27 16:17 | 43.76199 | -112.25219 | 40963 ft | 440 kts | 188° |
| 2026-04-27 16:18 | 43.64049 | -112.26811 | 40984 ft | 438 kts | 188° |
| 2026-04-27 16:19 | 43.57966 | -112.27603 | 40993 ft | 440 kts | 188° |
| 2026-04-27 16:20 | 43.45719 | -112.29191 | 40982 ft | 444 kts | 188° |
| 2026-04-27 16:21 | 43.36496 | -112.30382 | 40972 ft | 447 kts | 188° |
| 2026-04-27 16:22 | 43.24046 | -112.31983 | 40954 ft | 448 kts | 188° |
| 2026-04-27 16:22 | 43.14775 | -112.33171 | 40942 ft | 448 kts | 188° |
| 2026-04-27 16:23 | 43.05489 | -112.34358 | 40963 ft | 446 kts | 188° |
| 2026-04-27 16:24 | 42.99317 | -112.35145 | 40957 ft | 445 kts | 188° |
| 2026-04-27 16:25 | 42.87023 | -112.36708 | 40966 ft | 443 kts | 188° |
| 2026-04-27 16:26 | 42.74771 | -112.38260 | 40955 ft | 442 kts | 188° |
| 2026-04-27 16:27 | 42.62482 | -112.39811 | 40962 ft | 445 kts | 188° |
| 2026-04-27 16:28 | 42.46984 | -112.41757 | 40954 ft | 450 kts | 188° |
| 2026-04-27 16:29 | 42.31358 | -112.43709 | 40948 ft | 452 kts | 188° |
| 2026-04-27 16:30 | 42.18859 | -112.45253 | 40944 ft | 451 kts | 187° |
| 2026-04-27 16:31 | 42.03242 | -112.46059 | 40934 ft | 449 kts | 185° |
| 2026-04-27 16:32 | 41.93907 | -112.46530 | 40943 ft | 447 kts | 185° |
| 2026-04-27 16:33 | 41.84600 | -112.47033 | 40938 ft | 446 kts | 185° |
| 2026-04-27 16:33 | 41.78409 | -112.47367 | 40938 ft | 445 kts | 185° |
| 2026-04-27 16:34 | 41.72226 | -112.47699 | 40944 ft | 444 kts | 185° |
| 2026-04-27 16:34 | 41.66046 | -112.48030 | 40951 ft | 445 kts | 185° |
| 2026-04-27 16:35 | 41.59863 | -112.48360 | 40951 ft | 445 kts | 185° |
| 2026-04-27 16:36 | 41.50580 | -112.48855 | 40953 ft | 445 kts | 185° |
| 2026-04-27 16:36 | 41.44388 | -112.49184 | 40956 ft | 446 kts | 185° |
| 2026-04-27 16:37 | 41.38229 | -112.49511 | 40947 ft | 446 kts | 185° |
| 2026-04-27 16:37 | 41.32021 | -112.49839 | 40947 ft | 446 kts | 186° |
| 2026-04-27 16:38 | 41.25815 | -112.50167 | 40948 ft | 446 kts | 186° |
| 2026-04-27 16:38 | 41.19609 | -112.50494 | 40944 ft | 446 kts | 186° |
| 2026-04-27 16:39 | 41.13413 | -112.50820 | 40950 ft | 446 kts | 186° |
| 2026-04-27 16:39 | 41.07203 | -112.51147 | 40952 ft | 447 kts | 186° |
| 2026-04-27 16:40 | 41.00987 | -112.51473 | 40948 ft | 447 kts | 186° |
| 2026-04-27 16:40 | 40.94772 | -112.51798 | 40946 ft | 447 kts | 186° |
| 2026-04-27 16:41 | 40.88566 | -112.52122 | 40965 ft | 446 kts | 186° |
| 2026-04-27 16:41 | 40.82365 | -112.52445 | 40971 ft | 445 kts | 186° |
| 2026-04-27 16:42 | 40.76200 | -112.52766 | 40986 ft | 442 kts | 186° |
| 2026-04-27 16:42 | 40.70094 | -112.53260 | 41000 ft | 437 kts | 191° |
| 2026-04-27 16:43 | 40.65124 | -112.54274 | 41000 ft | 434 kts | 193° |
| 2026-04-27 16:43 | 40.59189 | -112.55615 | 40995 ft | 432 kts | 193° |
| 2026-04-27 16:44 | 40.53272 | -112.56919 | 40994 ft | 431 kts | 193° |
| 2026-04-27 16:44 | 40.47359 | -112.58183 | 40987 ft | 430 kts | 193° |
| 2026-04-27 16:45 | 40.41441 | -112.59431 | 40980 ft | 431 kts | 193° |
| 2026-04-27 16:45 | 40.35499 | -112.60678 | 40960 ft | 434 kts | 193° |
| 2026-04-27 16:46 | 40.29529 | -112.61929 | 40969 ft | 435 kts | 193° |
| 2026-04-27 16:46 | 40.23540 | -112.63181 | 40971 ft | 436 kts | 193° |
| 2026-04-27 16:47 | 40.17538 | -112.64434 | 40975 ft | 437 kts | 193° |
| 2026-04-27 16:47 | 40.11528 | -112.65687 | 40974 ft | 438 kts | 193° |
| 2026-04-27 16:48 | 40.05514 | -112.66938 | 40980 ft | 438 kts | 193° |
| 2026-04-27 16:48 | 39.99485 | -112.68191 | 40958 ft | 439 kts | 193° |
| 2026-04-27 16:49 | 39.90462 | -112.70060 | 40964 ft | 436 kts | 193° |
| 2026-04-27 16:49 | 39.84475 | -112.71298 | 40950 ft | 435 kts | 193° |
| 2026-04-27 16:50 | 39.78506 | -112.72530 | 40945 ft | 434 kts | 193° |
| 2026-04-27 16:50 | 39.72553 | -112.73757 | 40937 ft | 432 kts | 193° |
| 2026-04-27 16:51 | 39.66623 | -112.74977 | 40946 ft | 431 kts | 193° |
| 2026-04-27 16:51 | 39.60702 | -112.76193 | 40952 ft | 430 kts | 193° |
| 2026-04-27 16:52 | 39.54789 | -112.77406 | 40963 ft | 430 kts | 193° |
| 2026-04-27 16:52 | 39.48910 | -112.78610 | 40963 ft | 431 kts | 193° |
| 2026-04-27 16:53 | 39.42987 | -112.79820 | 40968 ft | 431 kts | 193° |
| 2026-04-27 16:53 | 39.37051 | -112.81031 | 40967 ft | 432 kts | 193° |
| 2026-04-27 16:54 | 39.31100 | -112.82243 | 40961 ft | 433 kts | 193° |
| 2026-04-27 16:54 | 39.25141 | -112.83454 | 40953 ft | 434 kts | 193° |
| 2026-04-27 16:55 | 39.19174 | -112.84665 | 40938 ft | 434 kts | 193° |
| 2026-04-27 16:55 | 39.13203 | -112.85874 | 40925 ft | 434 kts | 193° |
| 2026-04-27 16:56 | 39.07229 | -112.87082 | 40925 ft | 435 kts | 193° |
| 2026-04-27 16:56 | 39.01249 | -112.88289 | 40921 ft | 436 kts | 193° |
| 2026-04-27 16:57 | 38.95258 | -112.89496 | 40913 ft | 435 kts | 193° |
| 2026-04-27 16:57 | 38.89285 | -112.90697 | 40908 ft | 434 kts | 193° |
| 2026-04-27 16:58 | 38.83327 | -112.91894 | 40906 ft | 433 kts | 193° |
| 2026-04-27 16:58 | 38.77386 | -112.93085 | 40910 ft | 431 kts | 193° |
| 2026-04-27 16:59 | 38.71461 | -112.94271 | 40923 ft | 430 kts | 193° |
| 2026-04-27 16:59 | 38.65548 | -112.95453 | 40941 ft | 430 kts | 193° |
| 2026-04-27 17:00 | 38.56695 | -112.97219 | 40961 ft | 429 kts | 194° |
| 2026-04-27 17:01 | 38.50799 | -112.98392 | 40969 ft | 429 kts | 194° |
| 2026-04-27 17:01 | 38.44904 | -112.99564 | 40975 ft | 429 kts | 194° |
| 2026-04-27 17:02 | 38.39046 | -113.00726 | 40972 ft | 429 kts | 194° |
| 2026-04-27 17:02 | 38.33309 | -113.02499 | 40975 ft | 421 kts | 204° |
| 2026-04-27 17:03 | 38.27825 | -113.05143 | 40964 ft | 421 kts | 205° |
| 2026-04-27 17:03 | 38.22343 | -113.07800 | 40940 ft | 422 kts | 205° |
| 2026-04-27 17:04 | 38.16840 | -113.10431 | 40928 ft | 423 kts | 205° |
| 2026-04-27 17:04 | 38.11331 | -113.13042 | 40919 ft | 423 kts | 205° |
| 2026-04-27 17:05 | 38.05809 | -113.15650 | 40910 ft | 423 kts | 205° |
| 2026-04-27 17:05 | 38.00288 | -113.18252 | 40925 ft | 423 kts | 205° |
| 2026-04-27 17:06 | 37.94767 | -113.20852 | 40937 ft | 423 kts | 205° |
| 2026-04-27 17:06 | 37.89243 | -113.23449 | 40951 ft | 423 kts | 205° |
| 2026-04-27 17:07 | 37.83731 | -113.26035 | 40966 ft | 422 kts | 205° |
| 2026-04-27 17:07 | 37.78224 | -113.28616 | 40966 ft | 422 kts | 205° |
| 2026-04-27 17:08 | 37.72724 | -113.31189 | 40967 ft | 421 kts | 205° |
| 2026-04-27 17:08 | 37.67239 | -113.33752 | 40966 ft | 420 kts | 205° |
| 2026-04-27 17:09 | 37.61759 | -113.36307 | 40956 ft | 419 kts | 205° |
| 2026-04-27 17:09 | 37.56297 | -113.38851 | 40949 ft | 419 kts | 205° |
| 2026-04-27 17:10 | 37.50865 | -113.41377 | 40937 ft | 419 kts | 205° |
| 2026-04-27 17:10 | 37.45395 | -113.43917 | 40939 ft | 419 kts | 205° |
| 2026-04-27 17:11 | 37.39920 | -113.46455 | 40938 ft | 420 kts | 205° |
| 2026-04-27 17:11 | 37.34393 | -113.49016 | 40248 ft | 426 kts | 205° |
| 2026-04-27 17:11 | 37.31608 | -113.50302 | 39616 ft | 426 kts | 205° |
| 2026-04-27 17:12 | 37.26046 | -113.52869 | 38301 ft | 426 kts | 205° |
| 2026-04-27 17:12 | 37.23284 | -113.54205 | 37549 ft | 424 kts | 208° |
| 2026-04-27 17:12 | 37.20604 | -113.55710 | 36874 ft | 420 kts | 210° |
| 2026-04-27 17:13 | 37.17968 | -113.57287 | 36152 ft | 419 kts | 210° |
| 2026-04-27 17:13 | 37.15346 | -113.58877 | 35407 ft | 419 kts | 210° |
| 2026-04-27 17:13 | 37.12697 | -113.60468 | 34891 ft | 414 kts | 210° |
| 2026-04-27 17:13 | 37.10115 | -113.61994 | 34385 ft | 408 kts | 210° |
| 2026-04-27 17:14 | 37.07541 | -113.63499 | 33748 ft | 406 kts | 210° |
| 2026-04-27 17:14 | 37.05022 | -113.64968 | 33098 ft | 403 kts | 210° |
| 2026-04-27 17:14 | 37.02494 | -113.66443 | 32542 ft | 398 kts | 210° |
| 2026-04-27 17:14 | 37.00004 | -113.67897 | 32004 ft | 393 kts | 210° |